Beverly, MA (01915)

4:17 AM EST on December 13, 2017 (GMT -0500)
Cedar-Cove | | Change Station
Active Advisory: Wind Advisory Active Notice: Public Information Statement

Elev 67 ft 42.55 °N, 70.87 °W | Updated 1 second ago

Partly Cloudy
Partly Cloudy
26.1 °F
Feels Like 26 °F
N
3.0
Wind Variable Wind from SW

Today
High -- | Low -- °F
--% Chance of Precip.
Yesterday
High -- | Low -- °F
Precip. -- in
Pressure 29.21 in
Visibility 10.0 miles
Clouds Few 2000 ft
Windchill 26 °F
Dew Point 21 °F
Humidity 81%
Rainfall 0.00 in
Snow Depth Not available.
7:05 AM 4:10 PM
Waning Crescent, 21% visible
METAR KBVY 130853Z AUTO 27016G21KT 10SM FEW020 M02/M06 A2922 RMK AO2 SLP892 T10221061 50003
Pressure 29.21 in
Visibility 10.0 miles
Clouds Few 2000 ft
Windchill 26 °F
Dew Point 21 °F
Humidity 81%
Rainfall 0.00 in
Snow Depth Not available.
7:05 AM 4:10 PM
Waning Crescent, 21% visible
METAR KBVY 130853Z AUTO 27016G21KT 10SM FEW020 M02/M06 A2922 RMK AO2 SLP892 T10221061 50003

Get Your Daily Forecast Email!

Thanks for signing up!

Be on the lookout for a verification email in your inbox.

You'll start receiving severe weather alerts in your inbox..

×

10-Day Weather Forecast

Almanac

Astronomy

Dec. 13, 2017 Rise Set
Actual Time
Civil Twilight
Nautical Twilight
Astronomical Twilight
Moon
Length of Visible Light
Length of Day
Tomorrow will be .
, % of the Moon is Illuminated

Today's Extremes

State Highs State Lows

Community

WunderPhotos

Category 6

Welcome to Category 6. This is the collective home for Weather Underground's featured writeups by Dr. Jeff Masters (right), Bob Henson (left), Chris Burt, and other regular contributors.

Nearby

Air Quality

  Air Quality AQ Index Pollutant
Not available.

Snow Depth

Station Depth Elevation

Earthquake Activity

City Distance Mag. Time & Date
Minimum magnitude displayed is 2.5.

Coastal Water Temperatures

Place Temperature

Stations

Nearby Weather Stations

Station Location Temp. Windchill Dew Point Humidity Wind Precip. Elev Updated Type
                   

Watches & Warnings

Wind Advisory
Issued: 3:24 AM EST Dec. 13, 2017 – National Weather Service

... Wind Advisory now in effect from noon today to 10 PM EST this
evening...

* location... East Coast of MA, including the cape and islands,
as well as Block Island.

* Winds... west 20 to 30 mph with gusts 40 to 50 mph.

* Timing... strongest wind gusts this afternoon to early evening.

* Impacts... potential for downed tree limbs and branches. Isolated
power outages possible.

Precautionary/preparedness actions...

A Wind Advisory means that sustained winds of 31 to 39 mph are
expected, with gusts between 46 to 57 mph. Winds this strong are
capable of Downing small tree limbs and branches, possibly
causing isolated power outages. Driving can also be difficult,
especially for high profile vehicles. Use extra caution.